Bei Facebook empfehlenBei Twitter postenGoogle plusPinterest

Das Wetter im Erzgebirge am 15.01.2016

Wetter und Klima am 15.01.2016 Holzhau im Erzgebirge (630m ü.NN)
Letzte gemessene Temperatur und Uhrzeit der Messung23:45:00 Uhr-3.00 °C
Temperatur (Maximum / Höchstwert) und Uhrzeit der Messung11:45:00 Uhr2.10 °C
Temperatur (Minimum / Tiefstwert) und Uhrzeit der Messung23:45:00-3.00 °C
Errechneter Absolutwert der Temperaturschwankungen zwischen Tmin und Tmax des Tages5.10 K
Errechnete Tagesmitteltemperatur-1.47813 °C
Gesamt - Niederschlag des Tages (in flüssiger Form)0.52 Liter / m²
Luftdruck (Maximum / Höchstwert) und Zeitpunkt der Messung23:45:00 Uhr1007.70 hPa
Luftdruck (Minimum / Tiefstwert) und Zeitpunkt der Messung06:30:00 Uhr999.70 hPa
Errechneter Absolutwert der Luftdruckschwankungen des Tages8.00 hPa
Höchste gemessene Windgeschwindigkeit und Uhrzeit der Messung23:45:00 Uhr0.00 km/h
Errechnete Windhäufigkeit in Relation zu den Messwerten des Tages0.00000 %
Niedrigste Windkühle (Windchill) und Zeitpunkt der Messung23:45:00 Uhr-3.00 °C
Taupunkt (Maximum / Höchstwert) und Uhrzeit der Messung11:45:00 Uhr0.80 °C
Taupunkt (Minimum / Tiefstwert) und Uhrzeit der Messung23:45:00-4.10 °C
Anzahl der automatisch eingelesenen Messwerte 96

Detaillierte Wetter- und Klima- Messwerte für den 15.01.2016 in Holzhau im Erzgebirge (630m ü.NN)
ZeitTemperaturLuftdruckRel. LuftfeuchteWindWindrichtungWindchillTaupunktNiederschlag l/m²
23:45:00-3.00 °C1007.70 hPa93.00 %-4.10 °C0.52
23:30:00-2.80 °C1007.10 hPa93.00 %-3.90 °C0.52
23:15:00-2.70 °C1007.00 hPa93.00 %-3.80 °C0.52
23:00:00-2.60 °C1006.90 hPa93.00 %-3.70 °C0.52
22:45:00-2.50 °C1006.50 hPa93.00 %-3.60 °C0.52
22:30:00-2.50 °C1006.30 hPa93.00 %-3.60 °C0.52
22:15:00-2.40 °C1006.20 hPa92.00 %-3.70 °C0.52
22:00:00-2.40 °C1006.00 hPa92.00 %-3.70 °C0.52
21:45:00-2.20 °C1005.80 hPa92.00 %-3.50 °C0.52
21:30:00-2.10 °C1005.70 hPa92.00 %-3.40 °C0.52
21:15:00-1.90 °C1005.20 hPa93.00 %-3.00 °C0.52
21:00:00-1.80 °C1005.00 hPa92.00 %-3.10 °C0.52
20:45:00-1.80 °C1004.60 hPa92.00 %-3.10 °C0.52
20:30:00-1.70 °C1004.60 hPa92.00 %-3.00 °C0.52
20:15:00-1.70 °C1004.30 hPa92.00 %-3.00 °C0.52
20:00:00-1.70 °C1004.00 hPa92.00 %-3.00 °C0.52
19:45:00-1.70 °C1004.00 hPa92.00 %-3.00 °C0.52
19:30:00-1.70 °C1004.00 hPa91.00 %-3.10 °C0.52
19:15:00-1.60 °C1004.00 hPa91.00 %-3.00 °C0.52
19:00:00-1.60 °C1004.00 hPa91.00 %-3.00 °C0.52
18:45:00-1.50 °C1003.80 hPa91.00 %-2.90 °C0.52
18:30:00-1.50 °C1003.60 hPa91.00 %-2.90 °C0.52
18:15:00-1.40 °C1003.40 hPa91.00 %-2.80 °C0.52
18:00:00-1.40 °C1003.30 hPa91.00 %-2.80 °C0.52
17:45:00-1.40 °C1003.20 hPa90.00 %-3.00 °C0.52
17:30:00-1.40 °C1003.10 hPa90.00 %-3.00 °C0.52
17:15:00-1.40 °C1002.90 hPa90.00 %-3.00 °C0.52
17:00:00-1.30 °C1002.70 hPa90.00 %-2.90 °C0.52
16:45:00-1.30 °C1002.60 hPa89.00 %-3.10 °C0.52
16:30:00-1.20 °C1002.40 hPa90.00 %-2.80 °C0.52
16:15:00-1.10 °C1002.30 hPa89.00 %-2.90 °C0.52
16:00:00-1.00 °C1002.30 hPa89.00 %-2.80 °C0.52
15:45:00-0.80 °C1002.00 hPa89.00 %-2.60 °C0.52
15:30:00-0.70 °C1002.00 hPa88.00 %-2.60 °C0.52
15:15:00-0.60 °C1002.00 hPa88.00 %-2.50 °C0.52
15:00:00-0.60 °C1001.80 hPa88.00 %-2.50 °C0.52
14:45:00-0.50 °C1001.80 hPa88.00 %-2.40 °C0.52
14:30:00-0.20 °C1001.60 hPa87.00 %-2.30 °C0.52
14:15:000.10 °C1001.60 hPa87.00 %-1.80 °C0.52
14:00:000.40 °C1001.30 hPa87.00 %-1.50 °C0.52
13:45:000.70 °C1001.30 hPa88.00 %-1.10 °C0.52
13:30:000.90 °C1001.30 hPa88.00 %-0.90 °C0.52
13:15:000.90 °C1001.20 hPa89.00 %-0.70 °C0.52
13:00:000.70 °C1001.30 hPa89.00 %-0.90 °C0.52
12:45:000.60 °C1001.10 hPa89.00 %-1.00 °C0.52
12:30:000.60 °C1000.90 hPa90.00 %-0.80 °C0.52
12:15:000.90 °C1001.10 hPa90.00 %-0.50 °C0.52
12:00:001.40 °C1000.90 hPa91.00 %0.10 °C0.52
11:45:002.10 °C1001.10 hPa91.00 %0.80 °C 
11:30:001.90 °C1001.20 hPa92.00 %0.70 °C 
11:15:000.90 °C1001.10 hPa93.00 %-0.10 °C 
11:00:00-0.50 °C1001.00 hPa93.00 %-1.60 °C 
10:45:00-1.20 °C1000.90 hPa93.00 %-2.30 °C 
10:30:00-1.50 °C1000.80 hPa93.00 %-2.60 °C 
10:15:00-1.40 °C1000.80 hPa93.00 %-2.50 °C 
10:00:00-1.80 °C1000.70 hPa93.00 %-2.90 °C 
09:45:00-2.20 °C1000.90 hPa93.00 %-3.30 °C 
09:30:00-2.80 °C1000.90 hPa93.00 %-3.90 °C 
09:15:00-2.90 °C1000.90 hPa93.00 %-4.00 °C 
09:00:00-2.80 °C1000.80 hPa93.00 %-3.90 °C 
08:45:00-2.60 °C1000.40 hPa93.00 %-3.70 °C 
08:30:00-1.90 °C1000.20 hPa93.00 %-3.00 °C 
08:15:00-1.50 °C1000.20 hPa93.00 %-2.60 °C 
08:00:00-1.50 °C999.90 hPa93.00 %-2.60 °C 
07:45:00-1.60 °C999.80 hPa93.00 %-2.70 °C 
07:30:00-1.60 °C1000.00 hPa93.00 %-2.70 °C 
07:15:00-1.90 °C999.80 hPa93.00 %-3.00 °C 
07:00:00-2.00 °C999.90 hPa93.00 %-3.10 °C 
06:45:00-1.90 °C999.80 hPa93.00 %-3.00 °C 
06:30:00-1.90 °C999.70 hPa93.00 %-3.00 °C 
06:15:00-1.90 °C999.70 hPa93.00 %-3.00 °C 
06:00:00-1.90 °C999.90 hPa93.00 %-3.00 °C 
05:45:00-1.90 °C999.90 hPa93.00 %-3.00 °C 
05:30:00-1.90 °C999.90 hPa93.00 %-3.00 °C 
05:15:00-1.90 °C999.80 hPa93.00 %-3.00 °C 
05:00:00-1.90 °C1000.00 hPa93.00 %-3.00 °C 
04:45:00-1.90 °C999.90 hPa93.00 %-3.00 °C 
04:30:00-2.10 °C1000.10 hPa93.00 %-3.20 °C 
04:15:00-2.40 °C1000.00 hPa93.00 %-3.50 °C 
04:00:00-2.70 °C1000.00 hPa93.00 %-3.80 °C 
03:45:00-2.70 °C1000.10 hPa93.00 %-3.80 °C 
03:30:00-2.90 °C1000.10 hPa93.00 %-4.00 °C 
03:15:00-2.80 °C1000.20 hPa92.00 %-4.00 °C 
03:00:00-2.70 °C1000.20 hPa92.00 %-3.90 °C 
02:45:00-2.40 °C1000.40 hPa92.00 %-3.70 °C 
02:30:00-1.90 °C1000.50 hPa93.00 %-3.00 °C 
02:15:00-1.80 °C1000.60 hPa93.00 %-2.90 °C 
02:00:00-1.90 °C1000.50 hPa93.00 %-3.00 °C 
01:45:00-1.90 °C1000.80 hPa93.00 %-3.00 °C 
01:30:00-2.00 °C1000.60 hPa92.00 %-3.30 °C 
01:15:00-2.10 °C1000.60 hPa92.00 %-3.40 °C 
01:00:00-2.10 °C1000.60 hPa92.00 %-3.40 °C 
00:45:00-2.10 °C1000.80 hPa92.00 %-3.40 °C 
00:30:00-2.20 °C1001.00 hPa92.00 %-3.50 °C 
00:15:00-2.40 °C1001.00 hPa92.00 %-3.70 °C 
00:00:00-2.40 °C1001.20 hPa92.00 %-3.70 °C 

Permanenter Link zu dieser Seite: Wetter im Erzgebirge am 15.01.2016
Performance-Info: Die Erstellung der Seite / Statistik(en) / Tabelle(n) erforderte 5 Datenbankserver-Abfrage(n) und dauerte 93 Millisekunden. (Dieser Messwert ist von der Gesamt-Auslastung des Servers abhängig.)
Erzgebirge - Wetter | Erzgebirge - Wetter (Mobilgeräte) | Komplette Klimadatenbank